createdAt,value
2022-11-26T00:00:19.339Z,12.42
2022-11-26T00:02:48.601Z,10.68
2022-11-26T00:05:16.977Z,12.74
2022-11-26T00:07:54.875Z,13.08
2022-11-26T00:10:23.906Z,11.63
2022-11-26T00:12:51.723Z,11.42
2022-11-26T00:15:21.352Z,11.96
2022-11-26T00:17:51.176Z,10.68
2022-11-26T00:20:19.014Z,12.62
2022-11-26T00:22:48.132Z,11.70
2022-11-26T00:25:20.500Z,12.57
2022-11-26T00:27:48.344Z,12.21
2022-11-26T00:30:17.872Z,12.75
2022-11-26T00:32:45.561Z,13.04
2022-11-26T00:35:14.716Z,11.11
2022-11-26T00:37:43.607Z,11.36
2022-11-26T00:40:18.932Z,10.95
2022-11-26T00:42:46.771Z,11.95
2022-11-26T00:45:21.843Z,11.76
2022-11-26T00:47:49.630Z,11.69
2022-11-26T00:50:20.299Z,11.55
2022-11-26T00:52:48.474Z,12.30
2022-11-26T00:55:20.777Z,11.12
2022-11-26T00:57:48.468Z,11.25
2022-11-26T01:00:17.787Z,12.84
2022-11-26T01:02:45.522Z,11.90
2022-11-26T01:05:13.403Z,12.50
2022-11-26T01:07:42.728Z,12.34
2022-11-26T01:10:16.744Z,10.34
2022-11-26T01:12:44.375Z,11.09
2022-11-26T01:15:12.445Z,11.14
2022-11-26T01:17:40.168Z,11.70
2022-11-26T01:20:18.125Z,11.10
2022-11-26T01:22:48.697Z,9.81
2022-11-26T01:25:17.688Z,10.55
2022-11-26T01:27:51.012Z,11.30
2022-11-26T01:30:31.184Z,13.10
2022-11-26T01:33:04.189Z,12.75
2022-11-26T01:35:40.829Z,10.06
2022-11-26T01:38:15.982Z,11.86
2022-11-26T01:41:04.991Z,11.27
2022-11-26T01:43:35.782Z,11.16
2022-11-26T01:46:05.702Z,13.06
2022-11-26T01:48:39.573Z,11.97
2022-11-26T01:51:13.666Z,10.97
2022-11-26T01:53:52.764Z,12.25
2022-11-26T01:56:33.873Z,9.52
2022-11-26T01:59:06.013Z,12.88
2022-11-26T02:01:38.962Z,11.45
2022-11-26T02:04:22.117Z,9.12
2022-11-26T02:07:10.622Z,10.72
2022-11-26T02:10:13.378Z,12.74
2022-11-26T02:12:50.693Z,10.04
2022-11-26T02:15:18.581Z,12.59
2022-11-26T02:18:00.769Z,10.98
2022-11-26T02:21:07.758Z,11.48
2022-11-26T02:24:01.357Z,11.32
2022-11-26T02:27:04.876Z,11.18
2022-11-26T02:30:19.616Z,11.22
2022-11-26T02:32:57.485Z,10.59
2022-11-26T02:35:41.562Z,12.32
2022-11-26T02:38:41.263Z,10.56
2022-11-26T02:44:48.348Z,10.61
2022-11-26T02:47:33.206Z,11.00
2022-11-26T02:53:17.595Z,11.32
2022-11-26T02:55:48.322Z,9.87
2022-11-26T02:58:16.332Z,10.19
2022-11-26T03:00:49.764Z,11.24
2022-11-26T03:03:24.259Z,9.48
2022-11-26T03:05:58.721Z,10.66
2022-11-26T03:08:31.008Z,9.79
2022-11-26T03:11:01.282Z,9.24
2022-11-26T03:13:31.959Z,10.58
2022-11-26T03:16:08.053Z,10.60
2022-11-26T03:18:36.327Z,8.38
2022-11-26T03:21:11.875Z,11.43
2022-11-26T03:23:39.943Z,10.04
2022-11-26T03:26:12.442Z,10.64
2022-11-26T03:28:43.355Z,9.33
2022-11-26T03:31:13.776Z,10.97
2022-11-26T03:33:55.581Z,10.83
2022-11-26T03:36:37.576Z,8.19
2022-11-26T03:39:27.036Z,9.53
2022-11-26T03:42:41.607Z,11.21
2022-11-26T03:45:18.022Z,11.19
2022-11-26T03:47:45.964Z,9.50
2022-11-26T03:50:13.960Z,9.17
2022-11-26T03:52:46.330Z,9.71
2022-11-26T03:55:15.172Z,9.35
2022-11-26T03:57:42.924Z,9.31
2022-11-26T04:00:11.502Z,9.72
2022-11-26T04:02:39.313Z,8.28
2022-11-26T04:05:07.887Z,9.37
2022-11-26T04:07:35.680Z,8.59
2022-11-26T04:10:05.370Z,9.21
2022-11-26T04:12:33.168Z,7.74
2022-11-26T04:15:00.819Z,9.67
2022-11-26T04:17:28.521Z,10.69
2022-11-26T04:19:56.203Z,9.25
2022-11-26T04:22:23.979Z,8.70
2022-11-26T04:24:51.721Z,10.21
2022-11-26T04:27:20.898Z,8.84
2022-11-26T04:29:48.654Z,9.98
2022-11-26T04:32:16.365Z,11.01
2022-11-26T04:34:44.004Z,9.57
2022-11-26T04:37:11.688Z,9.67
2022-11-26T04:39:39.340Z,9.59
2022-11-26T04:42:07.088Z,10.77
2022-11-26T04:44:36.197Z,11.23
2022-11-26T04:47:04.180Z,10.56
2022-11-26T04:49:31.853Z,11.36
2022-11-26T04:51:59.536Z,11.43
2022-11-26T04:54:27.157Z,10.51
2022-11-26T04:56:54.848Z,9.97
2022-11-26T04:59:22.601Z,11.59
2022-11-26T05:01:51.720Z,9.86
2022-11-26T05:04:20.167Z,10.92
2022-11-26T05:06:47.838Z,11.13
2022-11-26T05:09:15.640Z,9.85
2022-11-26T05:11:43.274Z,11.23
2022-11-26T05:14:10.979Z,11.81
2022-11-26T05:16:38.683Z,10.70
2022-11-26T05:19:07.798Z,10.66
2022-11-26T05:21:35.463Z,10.80
2022-11-26T05:24:03.263Z,11.15
2022-11-26T05:26:31.025Z,10.18
2022-11-26T05:28:58.717Z,8.96
2022-11-26T05:31:26.353Z,10.54
2022-11-26T05:33:54.127Z,10.03
2022-11-26T05:36:23.208Z,9.74
2022-11-26T05:38:50.867Z,9.96
2022-11-26T05:41:18.524Z,9.69
2022-11-26T05:43:46.260Z,10.64
2022-11-26T05:46:13.948Z,9.52
2022-11-26T05:48:41.676Z,10.83
2022-11-26T05:51:09.825Z,10.38
2022-11-26T05:53:38.901Z,9.65
2022-11-26T05:56:06.973Z,9.41
2022-11-26T05:58:34.787Z,11.39
2022-11-26T06:01:02.479Z,10.63
2022-11-26T06:03:30.224Z,10.08
2022-11-26T06:05:57.855Z,9.75
2022-11-26T06:08:25.569Z,10.49
2022-11-26T06:10:54.592Z,10.02
2022-11-26T06:13:22.259Z,10.39
2022-11-26T06:15:50.063Z,10.79
2022-11-26T06:18:18.199Z,9.75
2022-11-26T06:20:45.900Z,9.47
2022-11-26T06:23:13.601Z,9.20
2022-11-26T06:25:41.787Z,9.81
2022-11-26T06:28:11.057Z,9.47
2022-11-26T06:30:38.756Z,10.56
2022-11-26T06:33:06.665Z,8.71
2022-11-26T06:35:44.622Z,10.89
2022-11-26T06:38:12.404Z,9.23
2022-11-26T06:40:40.065Z,10.42
2022-11-26T06:43:08.394Z,9.34
2022-11-26T06:45:37.617Z,9.36
2022-11-26T06:48:05.747Z,10.82
2022-11-26T06:50:52.890Z,7.83
2022-11-26T06:53:23.120Z,7.94
2022-11-26T06:55:50.899Z,10.50
2022-11-26T06:58:18.757Z,10.06
2022-11-26T07:00:47.817Z,10.05
2022-11-26T07:03:19.762Z,8.47
2022-11-26T07:05:50.237Z,10.35
2022-11-26T07:08:17.978Z,10.75
2022-11-26T07:10:49.042Z,10.73
2022-11-26T07:13:17.174Z,7.91
2022-11-26T07:15:45.095Z,9.58
2022-11-26T07:18:14.278Z,10.48
2022-11-26T07:20:42.042Z,10.13
2022-11-26T07:23:09.773Z,10.05
2022-11-26T07:25:37.809Z,9.78
2022-11-26T07:28:05.727Z,10.53
2022-11-26T07:30:33.624Z,10.30
2022-11-26T07:33:01.375Z,9.26
2022-11-26T07:35:33.004Z,10.57
2022-11-26T07:38:00.719Z,10.95
2022-11-26T07:40:28.475Z,10.08
2022-11-26T07:42:56.268Z,9.42
2022-11-26T07:45:24.090Z,10.27
2022-11-26T07:47:51.771Z,10.73
2022-11-26T07:50:19.576Z,11.52
2022-11-26T07:52:48.664Z,8.89
2022-11-26T07:55:16.887Z,9.84
2022-11-26T07:57:44.646Z,10.25
2022-11-26T08:00:13.261Z,10.89
2022-11-26T08:02:41.153Z,11.44
2022-11-26T08:05:09.083Z,11.11
2022-11-26T08:07:36.879Z,11.37
2022-11-26T08:10:07.156Z,12.44
2022-11-26T08:12:34.833Z,11.94
2022-11-26T08:15:02.789Z,11.25
2022-11-26T08:17:30.600Z,11.88
2022-11-26T08:19:58.277Z,12.00
2022-11-26T08:22:25.964Z,12.29
2022-11-26T08:24:53.891Z,13.09
2022-11-26T08:27:23.014Z,14.65
2022-11-26T08:29:50.704Z,15.56
2022-11-26T08:32:18.495Z,14.98
2022-11-26T08:34:46.137Z,13.60
2022-11-26T08:37:13.901Z,15.81
2022-11-26T08:39:41.670Z,15.80
2022-11-26T08:42:09.368Z,15.60
2022-11-26T08:44:38.593Z,17.00
2022-11-26T08:47:06.482Z,17.04
2022-11-26T08:49:34.317Z,16.44
2022-11-26T08:52:02.172Z,17.52
2022-11-26T08:54:29.965Z,16.69
2022-11-26T08:56:57.764Z,19.78
2022-11-26T08:59:25.471Z,19.62
2022-11-26T09:01:55.169Z,20.26
2022-11-26T09:04:23.090Z,20.64
2022-11-26T09:06:50.903Z,20.45
2022-11-26T09:09:18.586Z,20.54
2022-11-26T09:11:48.498Z,21.37
2022-11-26T09:14:16.908Z,22.43
2022-11-26T09:16:44.836Z,23.34
2022-11-26T09:19:14.534Z,23.48
2022-11-26T09:21:42.569Z,25.01
2022-11-26T09:24:10.587Z,25.54
2022-11-26T09:26:38.516Z,24.64
2022-11-26T09:29:06.400Z,24.60
2022-11-26T09:31:34.267Z,23.61
2022-11-26T09:34:02.462Z,24.53
2022-11-26T09:36:31.534Z,24.20
2022-11-26T09:39:00.008Z,24.44
2022-11-26T09:41:39.724Z,26.39
2022-11-26T09:44:40.926Z,27.43
2022-11-26T09:47:13.217Z,26.44
2022-11-26T09:49:47.165Z,26.81
2022-11-26T09:52:16.888Z,26.96
2022-11-26T09:54:44.712Z,27.29
2022-11-26T09:57:19.591Z,26.64
2022-11-26T09:59:47.610Z,24.44
2022-11-26T10:02:15.610Z,27.76
2022-11-26T10:04:43.511Z,27.26
2022-11-26T10:07:21.974Z,27.53
2022-11-26T10:09:54.868Z,26.64
2022-11-26T10:12:28.108Z,26.00
2022-11-26T10:14:58.193Z,25.40
2022-11-26T10:17:30.849Z,25.08
2022-11-26T10:20:09.859Z,25.51
2022-11-26T10:22:40.163Z,23.84
2022-11-26T10:25:14.443Z,24.03
2022-11-26T10:27:42.956Z,25.32
2022-11-26T10:30:17.447Z,24.94
2022-11-26T10:32:45.322Z,23.72
2022-11-26T10:35:15.459Z,23.71
2022-11-26T10:37:44.653Z,23.81
2022-11-26T10:40:21.369Z,24.77
2022-11-26T10:42:56.791Z,23.90
2022-11-26T10:45:26.499Z,24.11
2022-11-26T10:47:54.293Z,22.99
2022-11-26T10:53:21.360Z,23.26
2022-11-26T10:55:49.103Z,22.48
2022-11-26T10:58:17.882Z,22.08
2022-11-26T11:00:47.084Z,23.01
2022-11-26T11:03:16.881Z,22.52
2022-11-26T11:05:44.904Z,23.05
2022-11-26T11:08:14.753Z,22.10
2022-11-26T11:10:54.355Z,23.34
2022-11-26T11:13:22.190Z,22.15
2022-11-26T11:15:50.206Z,22.92
2022-11-26T11:18:20.214Z,23.29
2022-11-26T11:20:53.453Z,21.97
2022-11-26T11:23:34.723Z,21.99
2022-11-26T11:26:11.842Z,23.45
2022-11-26T11:28:42.708Z,21.77
2022-11-26T11:31:12.446Z,21.70
2022-11-26T11:33:40.388Z,21.63
2022-11-26T11:36:20.228Z,21.26
2022-11-26T11:38:49.493Z,21.72
2022-11-26T11:41:25.561Z,20.76
2022-11-26T11:43:57.951Z,21.41
2022-11-26T11:46:38.629Z,20.51
2022-11-26T11:49:15.348Z,18.86
2022-11-26T11:51:46.001Z,20.25
2022-11-26T11:54:16.833Z,18.14
2022-11-26T11:56:50.542Z,18.77
2022-11-26T11:59:58.468Z,18.26
2022-11-26T12:02:35.140Z,18.30
2022-11-26T12:05:15.362Z,18.85
2022-11-26T12:07:43.761Z,17.11
2022-11-26T12:10:15.142Z,19.14
2022-11-26T12:12:47.683Z,17.21
2022-11-26T12:15:23.435Z,18.52
2022-11-26T12:17:52.957Z,18.06
2022-11-26T12:20:23.824Z,18.45
2022-11-26T12:22:53.912Z,18.78
2022-11-26T12:25:25.706Z,18.80
2022-11-26T12:27:58.178Z,17.59
2022-11-26T12:30:29.525Z,16.47
2022-11-26T12:33:00.668Z,18.02
2022-11-26T12:35:29.694Z,17.70
2022-11-26T12:37:59.174Z,18.22
2022-11-26T12:40:31.646Z,16.78
2022-11-26T12:43:03.205Z,16.96
2022-11-26T12:45:43.797Z,17.10
2022-11-26T12:48:17.433Z,16.76
2022-11-26T12:50:48.073Z,16.85
2022-11-26T12:53:18.608Z,17.02
2022-11-26T12:55:49.687Z,16.03
2022-11-26T12:58:20.703Z,16.12
2022-11-26T13:00:49.653Z,16.58
2022-11-26T13:03:18.853Z,16.32
2022-11-26T13:05:51.827Z,16.79
2022-11-26T13:08:35.476Z,14.47
2022-11-26T13:11:11.758Z,16.40
2022-11-26T13:13:44.948Z,14.56
2022-11-26T13:16:16.915Z,14.32
2022-11-26T13:18:45.793Z,15.03
2022-11-26T13:21:24.411Z,15.81
2022-11-26T13:24:00.756Z,14.66
2022-11-26T13:26:36.340Z,14.26
2022-11-26T13:29:16.509Z,15.55
2022-11-26T13:31:51.934Z,15.85
2022-11-26T13:34:25.874Z,15.02
2022-11-26T13:37:09.208Z,15.50
2022-11-26T13:39:47.621Z,14.63
2022-11-26T13:42:23.241Z,15.05
2022-11-26T13:45:02.593Z,13.81
2022-11-26T13:47:31.399Z,14.56
2022-11-26T13:50:00.860Z,15.74
2022-11-26T13:52:30.768Z,16.14
2022-11-26T13:54:59.840Z,14.68
2022-11-26T13:57:32.682Z,14.84
2022-11-26T14:00:01.959Z,16.05
2022-11-26T14:02:47.405Z,14.53
2022-11-26T14:05:16.119Z,14.74
2022-11-26T14:07:44.199Z,14.99
2022-11-26T14:10:47.872Z,14.07
2022-11-26T14:13:16.285Z,15.56
2022-11-26T14:15:59.438Z,14.80
2022-11-26T14:19:07.146Z,15.71
2022-11-26T14:21:58.467Z,14.77
2022-11-26T14:24:54.234Z,15.25
2022-11-26T14:27:22.892Z,15.34
2022-11-26T14:29:55.000Z,14.13
2022-11-26T14:32:26.267Z,15.56
2022-11-26T14:34:54.580Z,15.49
2022-11-26T14:37:23.086Z,14.32
2022-11-26T14:39:58.847Z,14.18
2022-11-26T14:42:26.808Z,13.95
2022-11-26T14:45:13.578Z,14.47
2022-11-26T14:47:45.632Z,13.82
2022-11-26T14:50:14.650Z,13.95
2022-11-26T14:52:43.132Z,13.45
2022-11-26T14:55:17.573Z,14.32
2022-11-26T14:57:46.896Z,12.45
2022-11-26T15:00:23.187Z,14.52
2022-11-26T15:02:52.865Z,13.76
2022-11-26T15:05:27.465Z,12.84
2022-11-26T15:08:00.215Z,13.29
2022-11-26T15:10:28.658Z,12.45
2022-11-26T15:12:57.486Z,12.73
2022-11-26T15:15:25.580Z,13.02
2022-11-26T15:17:57.380Z,13.93
2022-11-26T15:20:25.249Z,12.90
2022-11-26T15:22:53.544Z,12.99
2022-11-26T15:25:22.930Z,12.56
2022-11-26T15:27:55.008Z,11.74
2022-11-26T15:30:24.475Z,12.68
2022-11-26T15:32:59.595Z,12.69
2022-11-26T15:35:27.748Z,13.27
2022-11-26T15:37:55.903Z,12.47
2022-11-26T15:40:24.822Z,11.72
2022-11-26T15:43:10.822Z,11.87
2022-11-26T15:45:41.479Z,9.76
2022-11-26T15:48:27.628Z,9.73
2022-11-26T15:50:58.867Z,12.94
2022-11-26T15:53:28.071Z,11.63
2022-11-26T15:55:56.105Z,9.92
2022-11-26T15:58:27.273Z,10.89
2022-11-26T16:00:57.003Z,11.29
2022-11-26T16:03:46.695Z,11.04
2022-11-26T16:06:29.753Z,10.59
2022-11-26T16:08:59.855Z,11.29
2022-11-26T16:11:28.517Z,10.90
2022-11-26T16:13:56.440Z,10.03
2022-11-26T16:16:25.187Z,12.32
2022-11-26T16:18:55.783Z,12.30
2022-11-26T16:21:24.985Z,12.71
2022-11-26T16:23:53.497Z,11.48
2022-11-26T16:26:21.258Z,11.93
2022-11-26T16:28:49.269Z,11.87
2022-11-26T16:31:17.593Z,12.55
2022-11-26T16:33:45.911Z,11.48
2022-11-26T16:36:22.223Z,10.36
2022-11-26T16:38:50.393Z,9.54
2022-11-26T16:41:20.160Z,10.17
2022-11-26T16:43:48.096Z,11.31
2022-11-26T16:46:17.304Z,11.61
2022-11-26T16:48:45.178Z,11.65
2022-11-26T16:51:12.816Z,9.47
2022-11-26T16:53:41.961Z,10.70
2022-11-26T16:58:45.706Z,12.16
2022-11-26T17:01:13.337Z,11.50
2022-11-26T17:03:41.281Z,11.52
2022-11-26T17:06:13.479Z,11.79
2022-11-26T17:08:47.969Z,12.15
2022-11-26T17:11:17.340Z,11.99
2022-11-26T17:13:45.192Z,12.10
2022-11-26T17:16:13.961Z,12.03
2022-11-26T17:18:41.658Z,12.06
2022-11-26T17:21:09.387Z,12.11
2022-11-26T17:23:37.042Z,12.12
2022-11-26T17:26:12.124Z,12.10
2022-11-26T17:28:39.746Z,12.14
2022-11-26T17:31:07.482Z,12.14
2022-11-26T17:33:35.136Z,12.15
2022-11-26T17:36:03.569Z,12.14
2022-11-26T17:38:31.276Z,12.05
2022-11-26T17:40:58.923Z,12.04
2022-11-26T17:43:27.930Z,11.99
2022-11-26T17:45:55.715Z,11.97
2022-11-26T17:48:26.681Z,11.63
2022-11-26T17:50:54.560Z,11.86
2022-11-26T17:53:22.287Z,11.80
2022-11-26T17:55:50.123Z,11.76
2022-11-26T17:58:17.729Z,11.74
2022-11-26T18:00:46.746Z,11.62
2022-11-26T18:03:14.416Z,11.49
2022-11-26T18:05:42.587Z,11.52
2022-11-26T18:08:10.280Z,11.46
2022-11-26T18:10:40.240Z,11.41
2022-11-26T18:13:07.935Z,11.40
2022-11-26T18:15:35.725Z,11.24
2022-11-26T18:18:04.816Z,11.31
2022-11-26T18:20:34.123Z,11.28
2022-11-26T18:23:02.124Z,11.26
2022-11-26T18:25:30.079Z,11.22
2022-11-26T18:27:57.725Z,11.10
2022-11-26T18:30:25.804Z,11.13
2022-11-26T18:32:53.468Z,11.11
2022-11-26T18:35:23.597Z,11.14
2022-11-26T18:37:51.617Z,11.09
2022-11-26T18:40:19.352Z,11.09
2022-11-26T18:42:47.026Z,11.06
2022-11-26T18:45:15.651Z,11.02
2022-11-26T18:47:43.396Z,11.06
2022-11-26T18:50:13.308Z,11.03
2022-11-26T18:52:42.407Z,11.04
2022-11-26T18:55:10.480Z,11.01
2022-11-26T18:57:41.184Z,9.82
2022-11-26T19:00:10.968Z,10.17
2022-11-26T19:02:38.693Z,10.50
2022-11-26T19:05:08.558Z,10.64
2022-11-26T19:07:36.371Z,10.50
2022-11-26T19:10:06.428Z,10.47
2022-11-26T19:12:34.176Z,10.27
2022-11-26T19:15:01.944Z,10.92
2022-11-26T19:17:29.547Z,10.38
2022-11-26T19:19:57.338Z,10.89
2022-11-26T19:22:25.115Z,10.20
2022-11-26T19:24:53.203Z,9.61
2022-11-26T19:27:22.324Z,10.84
2022-11-26T19:29:50.043Z,9.56
2022-11-26T19:32:17.864Z,9.62
2022-11-26T19:34:45.557Z,9.19
2022-11-26T19:37:13.249Z,9.81
2022-11-26T19:39:41.286Z,10.76
2022-11-26T19:42:09.277Z,10.46
2022-11-26T19:44:38.419Z,10.72
2022-11-26T19:47:06.247Z,9.56
2022-11-26T19:49:34.382Z,10.06
2022-11-26T19:52:02.060Z,10.72
2022-11-26T19:54:29.724Z,9.56
2022-11-26T19:56:57.439Z,10.67
2022-11-26T19:59:25.120Z,9.22
2022-11-26T20:01:55.739Z,9.73
2022-11-26T20:04:23.783Z,9.65
2022-11-26T20:06:51.612Z,10.00
2022-11-26T20:09:19.821Z,10.28
2022-11-26T20:11:50.607Z,9.40
2022-11-26T20:14:18.372Z,10.22
2022-11-26T20:16:46.252Z,10.24
2022-11-26T20:19:15.385Z,9.97
2022-11-26T20:21:43.071Z,8.48
2022-11-26T20:24:12.770Z,10.08
2022-11-26T20:26:41.431Z,10.38
2022-11-26T20:29:10.024Z,9.00
2022-11-26T20:31:40.003Z,10.11
2022-11-26T20:34:07.854Z,10.42
2022-11-26T20:36:37.683Z,10.08
2022-11-26T20:39:05.372Z,9.92
2022-11-26T20:41:37.728Z,10.37
2022-11-26T20:44:05.620Z,10.02
2022-11-26T20:46:33.440Z,9.77
2022-11-26T20:49:01.439Z,9.36
2022-11-26T20:51:29.154Z,10.43
2022-11-26T20:54:00.214Z,9.10
2022-11-26T20:56:28.192Z,7.61
2022-11-26T20:58:56.096Z,10.35
2022-11-26T21:01:31.672Z,9.56
2022-11-26T21:04:00.825Z,8.47
2022-11-26T21:06:30.322Z,8.50
2022-11-26T21:09:00.585Z,9.56
2022-11-26T21:11:28.352Z,9.29
2022-11-26T21:13:56.180Z,8.00
2022-11-26T21:16:23.892Z,9.49
2022-11-26T21:18:53.797Z,8.86
2022-11-26T21:21:21.817Z,9.30
2022-11-26T21:23:49.519Z,9.03
2022-11-26T21:26:19.877Z,9.39
2022-11-26T21:28:51.394Z,8.42
2022-11-26T21:31:19.377Z,8.72
2022-11-26T21:33:47.499Z,9.49
2022-11-26T21:36:17.297Z,9.43
2022-11-26T21:38:48.469Z,9.48
2022-11-26T21:41:16.394Z,8.08
2022-11-26T21:43:45.962Z,10.34
2022-11-26T21:46:15.580Z,8.47
2022-11-26T21:48:43.447Z,9.24
2022-11-26T21:51:12.660Z,8.42
2022-11-26T21:53:40.626Z,7.88
2022-11-26T21:56:09.002Z,10.01
2022-11-26T21:58:37.124Z,9.06
2022-11-26T22:01:12.386Z,9.86
2022-11-26T22:03:40.898Z,8.61
2022-11-26T22:06:08.995Z,9.16
2022-11-26T22:08:36.861Z,8.70
2022-11-26T22:11:09.329Z,9.95
2022-11-26T22:13:37.088Z,9.59
2022-11-26T22:16:13.253Z,9.85
2022-11-26T22:18:44.175Z,10.67
2022-11-26T22:21:12.798Z,9.77
2022-11-26T22:23:40.818Z,10.04
2022-11-26T22:26:08.842Z,7.97
2022-11-26T22:28:38.505Z,9.61
2022-11-26T22:31:13.306Z,9.80
2022-11-26T22:33:42.847Z,9.83
2022-11-26T22:36:11.546Z,8.19
2022-11-26T22:38:39.796Z,8.77
2022-11-26T22:41:08.469Z,9.46
2022-11-26T22:43:36.233Z,9.79
2022-11-26T22:46:04.661Z,8.13
2022-11-26T22:48:32.414Z,9.91
2022-11-26T22:51:01.651Z,7.90
2022-11-26T22:53:29.545Z,9.43
2022-11-26T22:55:59.104Z,9.99
2022-11-26T22:58:27.688Z,9.44
2022-11-26T23:00:56.856Z,8.63
2022-11-26T23:03:25.160Z,9.09
2022-11-26T23:05:53.529Z,10.38
2022-11-26T23:08:22.692Z,9.77
2022-11-26T23:10:50.518Z,8.99
2022-11-26T23:13:18.432Z,7.78
2022-11-26T23:15:46.656Z,9.89
2022-11-26T23:18:15.362Z,8.38
2022-11-26T23:20:43.301Z,9.76
2022-11-26T23:23:11.094Z,10.22
2022-11-26T23:25:40.662Z,8.75
2022-11-26T23:28:08.512Z,8.32
2022-11-26T23:30:36.413Z,9.05
2022-11-26T23:33:04.114Z,10.09
2022-11-26T23:35:31.799Z,9.14
2022-11-26T23:37:59.433Z,10.09
2022-11-26T23:40:27.142Z,8.80
2022-11-26T23:42:56.298Z,10.05
2022-11-26T23:45:24.069Z,9.23
2022-11-26T23:47:51.689Z,7.66
2022-11-26T23:50:19.468Z,9.99
2022-11-26T23:52:47.136Z,9.95
2022-11-26T23:55:14.813Z,8.29
2022-11-26T23:57:42.427Z,7.62
